ROMMA est une association bénévole à but non lucratif. Votre soutien est indispensable : ADHERER à ROMMA ou FAIRE un DON

Taninges - (74, Haute-Savoie)

Vallée du Giffre (635 m)   Longitude: 06° 35' 38" E   Latitude: 46° 06' 21" N Station romma n°98
 

Détail journalier du     <<     >>

Température Precipitation Humidité Pression Vent Dir Rafale Dir. rafale Ensol.
Heure (°C) (mm) (%) (hPa) (km/h) (km/h) (min)
01:00 16.809110132ESE6SSO0
02:00 16.209210131E6ENE0
03:00 15.509310121E5ESE0
04:00 14.809510121SO5S0
05:00 14.6095101203SO0
06:00 14.2096101103SO0
07:00 14.90.69610132SO10O0
08:00 15.309610131NE6E0
09:00 15.70.29610141SE6OSO0
10:00 16.10.49510142SE6ESE0
11:00 17.80.49210142OSO6SSE0
12:00 20.208410143SSO16SE25
13:00 22.406210135OSO15SO55
14:00 22.806010136O16O40
15:00 23.906010137ONO18O10
16:00 23.605410137O19O5
17:00 24.705110129OSO23SO40
18:00 23.705210138O26OSO20
19:00 23.605610135O18ONO35
20:00 22.805610133NE10NE60
21:00 20.505810143N15NE10
22:00 17.307810152ESE11NE0
23:00 15.208610151E5ESE0
minuit 14.1090101505ESE0

Graphique du 02-08-2019

 

Serveur OMMA